createdAt,value
2019-03-20T00:01:04.289Z,0.48
2019-03-20T00:03:37.818Z,0.47
2019-03-20T00:06:11.359Z,0.41
2019-03-20T00:08:44.698Z,0.38
2019-03-20T00:11:18.180Z,0.35
2019-03-20T00:13:51.640Z,0.27
2019-03-20T00:16:25.156Z,0.26
2019-03-20T00:18:58.516Z,0.22
2019-03-20T00:21:31.998Z,0.17
2019-03-20T00:24:05.408Z,0.07
2019-03-20T00:26:38.844Z,0.07
2019-03-20T00:29:12.264Z,0.10
2019-03-20T00:31:45.688Z,0.12
2019-03-20T00:34:19.133Z,0.18
2019-03-20T00:36:52.456Z,0.22
2019-03-20T00:39:25.954Z,0.19
2019-03-20T00:41:59.354Z,0.06
2019-03-20T00:44:32.834Z,-0.06
2019-03-20T00:47:06.275Z,0.02
2019-03-20T00:49:39.698Z,-0.11
2019-03-20T00:52:13.117Z,0.05
2019-03-20T00:54:46.574Z,0.11
2019-03-20T00:57:19.974Z,0.09
2019-03-20T00:59:53.340Z,0.06
2019-03-20T01:02:26.687Z,0.05
2019-03-20T01:05:00.175Z,-0.06
2019-03-20T01:07:33.702Z,-0.21
2019-03-20T01:10:10.450Z,-0.25
2019-03-20T01:12:43.960Z,-0.29
2019-03-20T01:15:17.467Z,-0.37
2019-03-20T01:17:50.927Z,-0.17
2019-03-20T01:20:24.747Z,-0.11
2019-03-20T01:22:58.150Z,-0.19
2019-03-20T01:25:31.739Z,-0.27
2019-03-20T01:28:05.181Z,-0.35
2019-03-20T01:30:40.296Z,-0.52
2019-03-20T01:33:14.270Z,-0.39
2019-03-20T01:35:47.707Z,-0.42
2019-03-20T01:38:21.128Z,-0.31
2019-03-20T01:40:54.582Z,-0.12
2019-03-20T01:43:28.021Z,-0.19
2019-03-20T01:46:01.440Z,-0.28
2019-03-20T01:48:34.794Z,-0.50
2019-03-20T01:51:20.408Z,-0.70
2019-03-20T01:53:53.760Z,-0.60
2019-03-20T01:56:27.111Z,-0.59
2019-03-20T01:59:00.473Z,-0.53
2019-03-20T02:01:33.964Z,-0.42
2019-03-20T02:04:07.421Z,-0.36
2019-03-20T02:06:40.790Z,-0.33
2019-03-20T02:09:14.141Z,-0.34
2019-03-20T02:11:47.601Z,-0.38
2019-03-20T02:14:21.010Z,-0.44
2019-03-20T02:16:54.532Z,-0.43
2019-03-20T02:19:27.913Z,-0.41
2019-03-20T02:22:01.250Z,-0.43
2019-03-20T02:24:34.615Z,-0.52
2019-03-20T02:27:08.606Z,-0.61
2019-03-20T02:29:42.072Z,-0.65
2019-03-20T02:32:15.504Z,-0.76
2019-03-20T02:34:48.861Z,-0.77
2019-03-20T02:37:22.315Z,-0.69
2019-03-20T02:39:55.656Z,-0.66
2019-03-20T02:42:29.132Z,-0.67
2019-03-20T02:45:02.515Z,-0.72
2019-03-20T02:47:35.906Z,-0.79
2019-03-20T02:50:10.650Z,-0.90
2019-03-20T02:52:44.016Z,-0.99
2019-03-20T02:55:17.484Z,-1.08
2019-03-20T02:57:50.901Z,-1.06
2019-03-20T03:00:24.433Z,-0.98
2019-03-20T03:02:57.854Z,-1.09
2019-03-20T03:05:31.344Z,-1.27
2019-03-20T03:08:04.834Z,-1.32
2019-03-20T03:10:38.263Z,-1.33
2019-03-20T03:13:11.701Z,-1.29
2019-03-20T03:15:45.151Z,-1.27
2019-03-20T03:18:18.563Z,-1.22
2019-03-20T03:20:51.955Z,-1.28
2019-03-20T03:23:25.308Z,-1.18
2019-03-20T03:25:58.732Z,-1.11
2019-03-20T03:28:32.125Z,-0.99
2019-03-20T03:31:05.623Z,-0.88
2019-03-20T03:33:38.978Z,-0.80
2019-03-20T03:36:21.115Z,-0.87
2019-03-20T03:38:47.487Z,-0.91
2019-03-20T03:41:20.936Z,-1.00
2019-03-20T03:43:54.390Z,-1.02
2019-03-20T03:46:28.291Z,-1.01
2019-03-20T03:49:01.717Z,-1.07
2019-03-20T03:51:35.219Z,-0.99
2019-03-20T03:54:08.582Z,-1.01
2019-03-20T03:56:42.037Z,-1.05
2019-03-20T03:59:15.385Z,-1.06
2019-03-20T04:01:48.734Z,-1.09
2019-03-20T04:04:22.089Z,-1.22
2019-03-20T04:06:55.564Z,-1.22
2019-03-20T04:09:28.987Z,-1.17
2019-03-20T04:12:02.437Z,-1.17
2019-03-20T04:14:35.796Z,-1.30
2019-03-20T04:17:24.354Z,-1.37
2019-03-20T04:19:57.764Z,-1.39
2019-03-20T04:22:31.235Z,-1.30
2019-03-20T04:25:06.219Z,-1.34
2019-03-20T04:27:39.601Z,-1.41
2019-03-20T04:30:15.722Z,-1.40
2019-03-20T04:32:49.257Z,-1.45
2019-03-20T04:35:22.613Z,-1.61
2019-03-20T04:37:56.062Z,-1.54
2019-03-20T04:40:29.507Z,-1.50
2019-03-20T04:43:03.256Z,-1.55
2019-03-20T04:45:36.639Z,-1.55
2019-03-20T04:48:10.005Z,-1.60
2019-03-20T04:50:43.420Z,-1.68
2019-03-20T04:53:16.866Z,-1.83
2019-03-20T04:55:50.307Z,-1.82
2019-03-20T04:58:23.701Z,-1.75
2019-03-20T05:00:57.146Z,-1.66
2019-03-20T05:03:30.647Z,-1.62
2019-03-20T05:06:04.098Z,-1.71
2019-03-20T05:08:37.591Z,-1.89
2019-03-20T05:11:10.956Z,-1.93
2019-03-20T05:13:44.378Z,-1.79
2019-03-20T05:16:17.781Z,-1.84
2019-03-20T05:18:51.260Z,-1.96
2019-03-20T05:21:24.606Z,-1.99
2019-03-20T05:23:57.975Z,-1.80
2019-03-20T05:26:31.472Z,-1.70
2019-03-20T05:29:04.903Z,-1.64
2019-03-20T05:31:38.265Z,-1.64
2019-03-20T05:34:11.760Z,-1.69
2019-03-20T05:36:45.135Z,-1.78
2019-03-20T05:39:18.476Z,-1.52
2019-03-20T05:41:51.994Z,-1.39
2019-03-20T05:44:25.330Z,-1.33
2019-03-20T05:46:58.722Z,-1.32
2019-03-20T05:49:32.073Z,-1.32
2019-03-20T05:52:05.443Z,-1.21
2019-03-20T05:54:38.777Z,-1.18
2019-03-20T05:57:12.742Z,-1.24
2019-03-20T05:59:46.070Z,-1.24
2019-03-20T06:02:19.481Z,-1.23
2019-03-20T06:04:52.886Z,-1.11
2019-03-20T06:07:26.382Z,-1.08
2019-03-20T06:09:59.730Z,-0.97
2019-03-20T06:12:33.110Z,-0.87
2019-03-20T06:15:07.524Z,-0.85
2019-03-20T06:17:40.881Z,-0.79
2019-03-20T06:20:14.868Z,-0.79
2019-03-20T06:22:48.226Z,-0.75
2019-03-20T06:25:21.788Z,-0.51
2019-03-20T06:27:55.233Z,-0.22
2019-03-20T06:30:28.584Z,0.00
2019-03-20T06:33:02.068Z,0.16
2019-03-20T06:35:35.473Z,1.09
2019-03-20T06:38:08.976Z,1.32
2019-03-20T06:40:42.402Z,0.66
2019-03-20T06:43:15.871Z,0.47
2019-03-20T06:45:49.270Z,0.52
2019-03-20T06:48:22.705Z,0.57
2019-03-20T06:50:56.067Z,0.66
2019-03-20T06:53:29.486Z,0.84
2019-03-20T06:56:02.916Z,1.00
2019-03-20T06:58:36.444Z,1.20
2019-03-20T07:01:22.190Z,1.34
2019-03-20T07:03:58.744Z,1.56
2019-03-20T07:06:50.283Z,1.55
2019-03-20T07:09:32.637Z,1.57
2019-03-20T07:12:05.961Z,2.03
2019-03-20T07:14:39.314Z,2.43
2019-03-20T07:17:12.660Z,2.60
2019-03-20T07:19:46.087Z,2.76
2019-03-20T07:22:19.437Z,4.70
2019-03-20T07:24:52.876Z,5.25
2019-03-20T07:27:26.302Z,5.14
2019-03-20T07:29:59.747Z,5.84
2019-03-20T07:32:33.159Z,6.17
2019-03-20T07:35:06.605Z,7.42
2019-03-20T07:37:39.962Z,7.20
2019-03-20T07:40:13.395Z,7.72
2019-03-20T07:42:46.743Z,7.47
2019-03-20T07:45:20.216Z,6.81
2019-03-20T07:47:53.559Z,6.09
2019-03-20T07:50:26.920Z,7.51
2019-03-20T07:53:00.270Z,6.62
2019-03-20T07:55:33.758Z,7.50
2019-03-20T07:58:07.253Z,6.77
2019-03-20T08:00:40.621Z,6.03
2019-03-20T08:03:13.957Z,4.97
2019-03-20T08:05:47.402Z,4.52
2019-03-20T08:08:20.759Z,4.48
2019-03-20T08:10:54.113Z,4.86
2019-03-20T08:13:27.542Z,4.90
2019-03-20T08:16:00.984Z,5.09
2019-03-20T08:18:34.451Z,4.96
2019-03-20T08:21:08.059Z,5.14
2019-03-20T08:23:41.522Z,5.32
2019-03-20T08:26:15.023Z,5.43
2019-03-20T08:28:48.381Z,5.23
2019-03-20T08:31:21.839Z,5.62
2019-03-20T08:33:55.173Z,6.03
2019-03-20T08:36:28.628Z,6.07
2019-03-20T08:39:02.059Z,6.32
2019-03-20T08:41:35.487Z,6.23
2019-03-20T08:44:08.886Z,6.06
2019-03-20T08:46:42.312Z,6.41
2019-03-20T08:49:15.728Z,6.55
2019-03-20T08:51:49.187Z,6.84
2019-03-20T08:54:22.618Z,6.39
2019-03-20T08:56:56.118Z,6.54
2019-03-20T08:59:29.535Z,6.81
2019-03-20T09:02:02.970Z,6.74
2019-03-20T09:04:36.386Z,7.11
2019-03-20T09:07:09.918Z,7.14
2019-03-20T09:09:43.254Z,6.93
2019-03-20T09:12:16.601Z,7.26
2019-03-20T09:14:50.053Z,6.91
2019-03-20T09:17:23.519Z,7.08
2019-03-20T09:19:56.871Z,7.21
2019-03-20T09:22:30.359Z,7.27
2019-03-20T09:25:05.324Z,7.59
2019-03-20T09:27:38.776Z,7.67
2019-03-20T09:30:15.406Z,7.63
2019-03-20T09:32:48.836Z,7.65
2019-03-20T09:35:22.281Z,7.66
2019-03-20T09:37:55.705Z,7.74
2019-03-20T09:40:29.743Z,8.03
2019-03-20T09:43:03.150Z,8.25
2019-03-20T09:45:36.601Z,8.54
2019-03-20T09:48:10.028Z,8.47
2019-03-20T09:50:43.390Z,8.03
2019-03-20T09:53:16.926Z,8.04
2019-03-20T09:55:50.320Z,8.18
2019-03-20T09:58:23.789Z,8.61
2019-03-20T10:00:57.277Z,8.63
2019-03-20T10:03:30.760Z,8.95
2019-03-20T10:06:04.188Z,8.80
2019-03-20T10:08:37.614Z,8.67
2019-03-20T10:11:10.964Z,9.02
2019-03-20T10:13:44.306Z,8.99
2019-03-20T10:16:17.752Z,9.24
2019-03-20T10:18:54.145Z,9.05
2019-03-20T10:21:27.613Z,9.36
2019-03-20T10:24:00.940Z,9.40
2019-03-20T10:26:34.402Z,9.42
2019-03-20T10:29:07.742Z,9.36
2019-03-20T10:31:41.220Z,9.51
2019-03-20T10:34:14.630Z,9.54
2019-03-20T10:36:48.089Z,9.94
2019-03-20T10:39:21.396Z,9.76
2019-03-20T10:41:54.895Z,10.00
2019-03-20T10:44:28.214Z,10.07
2019-03-20T10:47:01.926Z,10.03
2019-03-20T10:49:35.418Z,10.38
2019-03-20T10:52:08.786Z,10.39
2019-03-20T10:54:42.210Z,10.30
2019-03-20T10:57:15.620Z,10.49
2019-03-20T10:59:49.048Z,10.40
2019-03-20T11:02:22.510Z,10.68
2019-03-20T11:04:55.986Z,10.39
2019-03-20T11:07:29.433Z,10.44
2019-03-20T11:10:05.104Z,10.77
2019-03-20T11:12:38.483Z,10.60
2019-03-20T11:15:16.906Z,10.93
2019-03-20T11:17:50.235Z,10.72
2019-03-20T11:20:24.655Z,10.88
2019-03-20T11:22:58.108Z,10.58
2019-03-20T11:25:31.569Z,10.54
2019-03-20T11:28:05.021Z,10.82
2019-03-20T11:30:38.521Z,11.06
2019-03-20T11:33:11.978Z,10.76
2019-03-20T11:35:45.478Z,10.69
2019-03-20T11:38:18.932Z,10.91
2019-03-20T11:40:52.421Z,10.85
2019-03-20T11:43:25.957Z,11.20
2019-03-20T11:45:59.317Z,11.05
2019-03-20T11:48:33.471Z,11.46
2019-03-20T11:51:07.009Z,11.32
2019-03-20T11:53:40.430Z,11.36
2019-03-20T11:56:13.850Z,11.11
2019-03-20T11:58:47.234Z,11.36
2019-03-20T12:01:20.654Z,11.60
2019-03-20T12:03:54.023Z,11.69
2019-03-20T12:06:27.365Z,11.45
2019-03-20T12:09:00.798Z,11.38
2019-03-20T12:11:45.215Z,11.54
2019-03-20T12:14:11.211Z,11.55
2019-03-20T12:16:44.819Z,11.43
2019-03-20T12:19:18.287Z,11.54
2019-03-20T12:21:51.648Z,11.28
2019-03-20T12:24:25.189Z,11.54
2019-03-20T12:26:58.552Z,11.25
2019-03-20T12:29:31.915Z,11.38
2019-03-20T12:32:05.372Z,11.63
2019-03-20T12:34:39.087Z,11.53
2019-03-20T12:37:12.433Z,11.71
2019-03-20T12:39:53.025Z,11.52
2019-03-20T12:42:21.013Z,11.85
2019-03-20T12:44:55.381Z,12.18
2019-03-20T12:47:28.793Z,11.88
2019-03-20T12:50:02.166Z,12.11
2019-03-20T12:52:35.607Z,11.83
2019-03-20T12:55:15.042Z,11.68
2019-03-20T12:57:48.399Z,11.78
2019-03-20T13:00:27.668Z,12.13
2019-03-20T13:03:01.123Z,11.87
2019-03-20T13:05:34.495Z,12.24
2019-03-20T13:08:07.837Z,12.47
2019-03-20T13:10:41.409Z,12.12
2019-03-20T13:13:14.864Z,12.55
2019-03-20T13:15:48.323Z,12.77
2019-03-20T13:18:21.733Z,12.33
2019-03-20T13:20:55.177Z,12.29
2019-03-20T13:23:36.732Z,12.55
2019-03-20T13:26:10.124Z,13.05
2019-03-20T13:28:43.695Z,12.87
2019-03-20T13:31:20.284Z,12.72
2019-03-20T13:33:53.710Z,13.09
2019-03-20T13:36:27.153Z,12.67
2019-03-20T13:39:00.567Z,12.88
2019-03-20T13:41:34.127Z,13.00
2019-03-20T13:44:07.469Z,13.25
2019-03-20T13:46:40.845Z,12.80
2019-03-20T13:49:14.296Z,12.84
2019-03-20T13:51:47.771Z,12.88
2019-03-20T13:54:21.185Z,12.86
2019-03-20T13:56:54.696Z,12.83
2019-03-20T13:59:28.104Z,13.04
2019-03-20T14:02:01.536Z,12.93
2019-03-20T14:04:34.955Z,12.79
2019-03-20T14:07:08.336Z,13.10
2019-03-20T14:09:41.679Z,13.07
2019-03-20T14:12:15.139Z,12.77
2019-03-20T14:14:48.548Z,13.01
2019-03-20T14:17:21.986Z,13.19
2019-03-20T14:19:55.401Z,13.00
2019-03-20T14:22:31.620Z,12.91
2019-03-20T14:25:07.827Z,13.11
2019-03-20T14:27:41.306Z,12.65
2019-03-20T14:30:22.806Z,13.00
2019-03-20T14:32:56.325Z,12.98
2019-03-20T14:35:29.731Z,13.09
2019-03-20T14:38:03.261Z,13.48
2019-03-20T14:40:37.117Z,13.80
2019-03-20T14:43:10.667Z,13.53
2019-03-20T14:45:44.113Z,13.35
2019-03-20T14:48:17.533Z,13.61
2019-03-20T14:50:50.946Z,13.54
2019-03-20T14:53:24.307Z,13.11
2019-03-20T14:55:57.656Z,12.99
2019-03-20T14:58:31.060Z,13.31
2019-03-20T15:01:04.502Z,13.14
2019-03-20T15:03:38.038Z,13.36
2019-03-20T15:06:11.402Z,13.36
2019-03-20T15:08:44.867Z,13.48
2019-03-20T15:11:18.309Z,13.11
2019-03-20T15:13:51.654Z,13.20
2019-03-20T15:16:25.052Z,13.42
2019-03-20T15:18:58.394Z,13.40
2019-03-20T15:21:31.904Z,13.23
2019-03-20T15:24:05.327Z,13.17
2019-03-20T15:26:38.763Z,13.07
2019-03-20T15:29:12.170Z,13.63
2019-03-20T15:31:45.702Z,13.44
2019-03-20T15:34:19.172Z,13.46
2019-03-20T15:36:52.648Z,12.98
2019-03-20T15:39:26.042Z,13.04
2019-03-20T15:41:59.595Z,13.20
2019-03-20T15:44:33.047Z,13.32
2019-03-20T15:47:06.535Z,13.11
2019-03-20T15:49:39.894Z,12.98
2019-03-20T15:52:13.310Z,13.10
2019-03-20T15:54:46.675Z,12.93
2019-03-20T15:57:20.208Z,13.07
2019-03-20T15:59:53.618Z,13.21
2019-03-20T16:02:27.215Z,13.12
2019-03-20T16:05:00.605Z,13.14
2019-03-20T16:07:33.933Z,13.10
2019-03-20T16:10:13.490Z,12.97
2019-03-20T16:12:49.783Z,12.93
2019-03-20T16:15:23.897Z,12.88
2019-03-20T16:17:57.453Z,13.21
2019-03-20T16:20:30.837Z,14.26
2019-03-20T16:23:04.584Z,14.96
2019-03-20T16:25:38.013Z,15.12
2019-03-20T16:28:11.436Z,14.42
2019-03-20T16:30:44.915Z,15.00
2019-03-20T16:33:18.370Z,14.91
2019-03-20T16:35:51.710Z,14.36
2019-03-20T16:38:25.164Z,15.54
2019-03-20T16:40:58.502Z,14.72
2019-03-20T16:43:31.909Z,14.26
2019-03-20T16:46:05.275Z,14.20
2019-03-20T16:48:38.644Z,14.07
2019-03-20T16:51:12.007Z,13.92
2019-03-20T16:53:45.499Z,13.63
2019-03-20T16:56:18.852Z,13.16
2019-03-20T16:58:52.258Z,13.48
2019-03-20T17:01:25.704Z,12.38
2019-03-20T17:03:59.078Z,12.05
2019-03-20T17:06:32.481Z,11.89
2019-03-20T17:09:07.163Z,12.16
2019-03-20T17:11:40.623Z,12.13
2019-03-20T17:14:14.108Z,12.06
2019-03-20T17:16:47.459Z,11.93
2019-03-20T17:19:20.828Z,11.78
2019-03-20T17:21:54.233Z,11.72
2019-03-20T17:24:27.650Z,11.76
2019-03-20T17:27:01.057Z,11.69
2019-03-20T17:29:34.601Z,11.52
2019-03-20T17:32:08.040Z,11.41
2019-03-20T17:34:41.460Z,11.09
2019-03-20T17:37:14.827Z,10.82
2019-03-20T17:39:49.224Z,10.59
2019-03-20T17:42:22.928Z,10.75
2019-03-20T17:44:57.908Z,10.73
2019-03-20T17:47:31.252Z,10.37
2019-03-20T17:50:07.791Z,10.00
2019-03-20T17:52:41.179Z,9.72
2019-03-20T17:55:14.598Z,9.54
2019-03-20T17:57:48.452Z,9.31
2019-03-20T18:00:28.220Z,9.13
2019-03-20T18:03:01.683Z,9.43
2019-03-20T18:05:35.184Z,9.59
2019-03-20T18:08:09.295Z,9.51
2019-03-20T18:10:42.829Z,9.47
2019-03-20T18:13:16.344Z,9.68
2019-03-20T18:15:49.803Z,9.57
2019-03-20T18:18:23.264Z,9.48
2019-03-20T18:20:56.709Z,9.32
2019-03-20T18:23:30.223Z,9.21
2019-03-20T18:26:03.638Z,8.82
2019-03-20T18:28:36.995Z,8.54
2019-03-20T18:31:10.476Z,8.76
2019-03-20T18:33:44.214Z,8.85
2019-03-20T18:36:17.698Z,8.72
2019-03-20T18:38:51.104Z,8.29
2019-03-20T18:41:24.453Z,7.86
2019-03-20T18:43:57.828Z,7.56
2019-03-20T18:46:31.255Z,7.63
2019-03-20T18:49:04.779Z,7.64
2019-03-20T18:51:38.351Z,7.45
2019-03-20T18:54:11.878Z,7.32
2019-03-20T18:56:45.256Z,7.39
2019-03-20T18:59:18.717Z,7.23
2019-03-20T19:01:52.206Z,7.36
2019-03-20T19:04:26.133Z,7.61
2019-03-20T19:06:59.683Z,7.42
2019-03-20T19:09:33.293Z,7.28
2019-03-20T19:12:08.759Z,7.18
2019-03-20T19:14:42.106Z,6.99
2019-03-20T19:17:15.679Z,6.81
2019-03-20T19:19:49.160Z,6.68
2019-03-20T19:22:22.620Z,6.65
2019-03-20T19:24:56.103Z,6.50
2019-03-20T19:27:29.480Z,6.27
2019-03-20T19:30:03.224Z,6.07
2019-03-20T19:32:36.631Z,6.12
2019-03-20T19:35:11.526Z,6.05
2019-03-20T19:37:45.105Z,5.81
2019-03-20T19:40:20.248Z,5.73
2019-03-20T19:42:53.714Z,5.67
2019-03-20T19:45:27.140Z,5.59
2019-03-20T19:48:00.568Z,5.68
2019-03-20T19:50:34.068Z,5.81
2019-03-20T19:53:07.487Z,5.71
2019-03-20T19:55:40.946Z,5.60
2019-03-20T19:58:14.379Z,5.50
2019-03-20T20:00:47.800Z,5.44
2019-03-20T20:03:21.244Z,5.36
2019-03-20T20:05:54.649Z,5.34
2019-03-20T20:08:27.965Z,5.44
2019-03-20T20:11:01.403Z,5.44
2019-03-20T20:13:34.851Z,5.49
2019-03-20T20:16:08.301Z,5.32
2019-03-20T20:18:41.792Z,5.22
2019-03-20T20:21:15.347Z,5.30
2019-03-20T20:23:48.758Z,5.10
2019-03-20T20:26:22.271Z,5.32
2019-03-20T20:28:55.771Z,5.43
2019-03-20T20:31:29.246Z,5.29
2019-03-20T20:34:02.634Z,5.22
2019-03-20T20:36:36.060Z,5.33
2019-03-20T20:39:09.466Z,5.23
2019-03-20T20:41:42.914Z,5.19
2019-03-20T20:44:16.360Z,5.13
2019-03-20T20:46:49.814Z,5.09
2019-03-20T20:49:24.392Z,4.94
2019-03-20T20:51:58.028Z,4.87
2019-03-20T20:54:31.826Z,4.83
2019-03-20T20:57:05.515Z,4.68
2019-03-20T20:59:38.944Z,4.64
2019-03-20T21:02:12.344Z,4.61
2019-03-20T21:04:45.678Z,4.45
2019-03-20T21:07:19.041Z,4.45
2019-03-20T21:09:52.456Z,4.50
2019-03-20T21:12:27.382Z,4.43
2019-03-20T21:15:00.789Z,4.34
2019-03-20T21:17:37.353Z,4.19
2019-03-20T21:20:10.760Z,4.13
2019-03-20T21:22:50.312Z,3.93
2019-03-20T21:25:23.787Z,3.89
2019-03-20T21:28:20.033Z,3.78
2019-03-20T21:30:56.578Z,3.84
2019-03-20T21:33:49.702Z,3.85
2019-03-20T21:36:44.533Z,3.78
2019-03-20T21:39:17.968Z,3.83
2019-03-20T21:42:26.559Z,3.71
2019-03-20T21:45:32.009Z,3.61
2019-03-20T21:48:05.424Z,3.79
2019-03-20T21:50:53.904Z,3.80
2019-03-20T21:53:39.307Z,3.77
2019-03-20T21:56:21.460Z,3.73
2019-03-20T21:59:21.019Z,3.64
2019-03-20T22:02:12.640Z,3.68
2019-03-20T22:04:46.106Z,3.61
2019-03-20T22:07:19.421Z,3.60
2019-03-20T22:09:56.010Z,3.52
2019-03-20T22:12:49.034Z,3.37
2019-03-20T22:15:31.445Z,3.23
2019-03-20T22:18:36.949Z,3.30
2019-03-20T22:21:31.622Z,3.44
2019-03-20T22:24:17.259Z,3.44
2019-03-20T22:27:16.731Z,3.34
2019-03-20T22:29:50.071Z,3.10
2019-03-20T22:32:29.623Z,3.08
2019-03-20T22:35:30.503Z,3.23
2019-03-20T22:38:07.391Z,3.29
2019-03-20T22:41:03.786Z,3.21
2019-03-20T22:43:43.335Z,3.14
2019-03-20T22:46:39.339Z,3.13
2019-03-20T22:49:35.601Z,3.10
2019-03-20T22:52:33.502Z,3.04
2019-03-20T22:55:28.001Z,2.91
2019-03-20T22:58:16.309Z,2.77
2019-03-20T23:00:52.885Z,2.66
2019-03-20T23:03:32.283Z,2.66
2019-03-20T23:06:06.568Z,2.70
2019-03-20T23:08:40.018Z,2.65
2019-03-20T23:11:13.476Z,2.70
2019-03-20T23:13:46.839Z,2.70
2019-03-20T23:16:21.416Z,2.60
2019-03-20T23:18:54.924Z,2.44
2019-03-20T23:21:28.288Z,2.68
2019-03-20T23:24:01.667Z,2.60
2019-03-20T23:26:35.111Z,2.54
2019-03-20T23:29:08.547Z,2.44
2019-03-20T23:31:41.984Z,2.35
2019-03-20T23:34:15.382Z,2.41
2019-03-20T23:36:48.753Z,2.55
2019-03-20T23:39:22.134Z,2.55
2019-03-20T23:41:55.545Z,2.55
2019-03-20T23:44:28.903Z,2.46
2019-03-20T23:47:02.254Z,2.48
2019-03-20T23:49:35.691Z,2.40
2019-03-20T23:52:09.108Z,2.37
2019-03-20T23:54:44.207Z,2.28
2019-03-20T23:57:17.691Z,2.30
2019-03-20T23:59:51.057Z,2.34
